Time;durP1;ratioP1;P1;durP2;ratioP2;P2;SDS_P1;SDS_P2;PMS_P1;PMS_P2;Temp;Humidity;BMP_temperature;BMP_pressure;BME280_temperature;BME280_humidity;BME280_pressure;Samples;Min_cycle;Max_cycle;Signal;HPM_P1;HPM_P2
2023/12/21 00:00:11;;;;;;;22.17;3.92;;;;;;;;;;5044396;28;20036;-76
2023/12/21 00:02:38;;;;;;;21.30;4.10;;;;;;;;;;5044197;28;20041;-76
2023/12/21 00:05:04;;;;;;;19.05;3.85;;;;;;;;;;5047794;28;20068;-76
2023/12/21 00:07:30;;;;;;;20.90;3.33;;;;;;;;;;5045228;28;20076;-75
2023/12/21 00:09:57;;;;;;;19.95;4.32;;;;;;;;;;5043675;28;20033;-77
2023/12/21 00:12:24;;;;;;;17.23;3.55;;;;;;;;;;5046378;28;20112;-75
2023/12/21 00:14:50;;;;;;;23.48;4.10;;;;;;;;;;5046165;28;20036;-76
2023/12/21 00:17:16;;;;;;;21.08;4.57;;;;;;;;;;5044683;28;20029;-75
2023/12/21 00:19:43;;;;;;;22.58;4.82;;;;;;;;;;5045396;28;20342;-76
2023/12/21 00:22:09;;;;;;;13.98;3.85;;;;;;;;;;5046401;28;20136;-76
2023/12/21 00:24:35;;;;;;;19.10;4.25;;;;;;;;;;5046323;28;20049;-75
2023/12/21 00:27:01;;;;;;;19.50;3.50;;;;;;;;;;5047297;28;20116;-74
2023/12/21 00:29:27;;;;;;;19.92;3.72;;;;;;;;;;5047200;28;20106;-75
2023/12/21 00:31:53;;;;;;;21.08;4.07;;;;;;;;;;5045591;28;20121;-74
2023/12/21 00:34:21;;;;;;;16.38;3.70;;;;;;;;;;5044611;28;20036;-75
2023/12/21 00:36:47;;;;;;;19.05;3.38;;;;;;;;;;5045889;28;20490;-76
2023/12/21 00:39:13;;;;;;;16.92;3.42;;;;;;;;;;5045936;28;20037;-77
2023/12/21 00:41:39;;;;;;;21.88;4.07;;;;;;;;;;5049980;28;20029;-77
2023/12/21 00:44:05;;;;;;;19.30;3.35;;;;;;;;;;5049123;28;20033;-76
2023/12/21 00:46:31;;;;;;;14.18;3.30;;;;;;;;;;5045403;28;20060;-75
2023/12/21 00:48:57;;;;;;;19.50;3.17;;;;;;;;;;5049215;28;20025;-76
2023/12/21 00:51:23;;;;;;;14.98;3.42;;;;;;;;;;5048370;28;20029;-76
2023/12/21 00:53:50;;;;;;;14.98;3.88;;;;;;;;;;5054479;28;20087;-76
2023/12/21 00:56:16;;;;;;;19.30;3.20;;;;;;;;;;5014223;28;20029;-76
2023/12/21 00:58:42;;;;;;;16.77;3.70;;;;;;;;;;5049373;28;20036;-77
2023/12/21 01:01:08;;;;;;;24.48;4.50;;;;;;;;;;5049686;28;20013;-77
2023/12/21 01:03:34;;;;;;;19.15;4.03;;;;;;;;;;5051197;28;20377;-77
2023/12/21 01:06:00;;;;;;;17.77;3.92;;;;;;;;;;5049570;28;20020;-77
2023/12/21 01:08:26;;;;;;;13.80;3.25;;;;;;;;;;5049036;28;20064;-76
2023/12/21 01:10:53;;;;;;;12.15;3.20;;;;;;;;;;5026591;28;20044;-76
2023/12/21 01:13:19;;;;;;;16.52;4.25;;;;;;;;;;5050865;28;20032;-76
2023/12/21 01:15:45;;;;;;;23.10;4.22;;;;;;;;;;5048815;28;20025;-76
2023/12/21 01:18:11;;;;;;;24.38;4.47;;;;;;;;;;5049249;28;20064;-75
2023/12/21 01:20:38;;;;;;;19.75;3.53;;;;;;;;;;5048282;28;20057;-75
2023/12/21 01:23:04;;;;;;;12.95;3.70;;;;;;;;;;5031948;28;20079;-75
2023/12/21 01:25:30;;;;;;;16.80;4.18;;;;;;;;;;5050408;28;20086;-76
2023/12/21 01:27:56;;;;;;;19.83;4.18;;;;;;;;;;5050470;28;20061;-76
2023/12/21 01:30:23;;;;;;;18.13;3.38;;;;;;;;;;5050403;28;20055;-75
2023/12/21 01:32:49;;;;;;;17.58;3.75;;;;;;;;;;5050273;28;20101;-75
2023/12/21 01:35:15;;;;;;;17.73;3.80;;;;;;;;;;5048388;28;20074;-75
2023/12/21 01:37:42;;;;;;;22.27;4.57;;;;;;;;;;5049008;28;20032;-74
2023/12/21 01:40:08;;;;;;;27.88;3.97;;;;;;;;;;5045217;28;20052;-74
2023/12/21 01:42:35;;;;;;;18.60;3.17;;;;;;;;;;5048763;28;20029;-75
2023/12/21 01:45:01;;;;;;;18.10;4.70;;;;;;;;;;5047628;28;20035;-74
2023/12/21 01:47:27;;;;;;;20.88;3.65;;;;;;;;;;5048243;28;20033;-74
2023/12/21 01:49:53;;;;;;;22.00;3.88;;;;;;;;;;5043929;28;20095;-76
2023/12/21 01:52:20;;;;;;;18.17;4.15;;;;;;;;;;5043600;28;20032;-76
2023/12/21 01:54:46;;;;;;;18.25;4.28;;;;;;;;;;5045177;28;20238;-76
2023/12/21 01:57:12;;;;;;;18.65;3.75;;;;;;;;;;5048966;28;20052;-75
2023/12/21 01:59:40;;;;;;;16.63;3.28;;;;;;;;;;5047262;28;20033;-76
2023/12/21 02:02:06;;;;;;;20.83;4.85;;;;;;;;;;5046527;28;20104;-75
2023/12/21 02:04:32;;;;;;;23.13;3.65;;;;;;;;;;5031271;28;20055;-76
2023/12/21 02:06:58;;;;;;;22.95;3.97;;;;;;;;;;5048703;28;20049;-76
2023/12/21 02:09:25;;;;;;;16.70;3.50;;;;;;;;;;5045515;28;20098;-74
2023/12/21 02:11:51;;;;;;;16.10;3.47;;;;;;;;;;5047013;28;20061;-75
2023/12/21 02:14:17;;;;;;;17.48;3.20;;;;;;;;;;5047691;28;20032;-74
2023/12/21 02:16:52;;;;;;;11.32;3.08;;;;;;;;;;5044868;28;20107;-75
2023/12/21 02:19:19;;;;;;;20.25;3.95;;;;;;;;;;5048090;28;20032;-75
2023/12/21 02:21:46;;;;;;;12.52;3.20;;;;;;;;;;5048362;28;20035;-76
2023/12/21 02:24:15;;;;;;;19.10;3.67;;;;;;;;;;5049187;28;20151;-76
2023/12/21 02:26:42;;;;;;;19.15;3.45;;;;;;;;;;5030351;28;20041;-76
2023/12/21 02:29:08;;;;;;;15.57;4.40;;;;;;;;;;5030411;28;20110;-76
2023/12/21 02:31:35;;;;;;;20.33;3.80;;;;;;;;;;5045149;28;20139;-76
2023/12/21 02:34:02;;;;;;;15.70;3.22;;;;;;;;;;5046551;28;20499;-76
2023/12/21 02:36:28;;;;;;;17.27;3.47;;;;;;;;;;5046316;28;20021;-76
2023/12/21 02:38:54;;;;;;;22.98;4.28;;;;;;;;;;5043670;28;20047;-76
2023/12/21 02:41:20;;;;;;;18.42;4.20;;;;;;;;;;5047354;28;20037;-76
2023/12/21 02:43:46;;;;;;;24.35;4.35;;;;;;;;;;5044995;28;20543;-76
2023/12/21 02:46:13;;;;;;;17.40;3.65;;;;;;;;;;5047500;28;20336;-74
2023/12/21 02:48:39;;;;;;;17.00;3.90;;;;;;;;;;5046525;28;20041;-77
2023/12/21 02:51:05;;;;;;;17.65;3.47;;;;;;;;;;5047299;28;20082;-77
2023/12/21 02:53:31;;;;;;;13.50;3.65;;;;;;;;;;5047331;28;20025;-75
2023/12/21 02:55:57;;;;;;;23.83;4.05;;;;;;;;;;5045528;28;20500;-76
2023/12/21 02:58:23;;;;;;;15.05;4.40;;;;;;;;;;5045507;28;20143;-75
2023/12/21 03:00:50;;;;;;;17.50;3.92;;;;;;;;;;5030667;28;20033;-76
2023/12/21 03:03:16;;;;;;;13.30;3.33;;;;;;;;;;5045856;28;20025;-75
2023/12/21 03:05:42;;;;;;;23.75;3.70;;;;;;;;;;5048101;28;20067;-76
2023/12/21 03:08:08;;;;;;;17.27;4.07;;;;;;;;;;5047905;28;20052;-75
2023/12/21 03:10:34;;;;;;;16.25;3.85;;;;;;;;;;5046337;28;20037;-74
2023/12/21 03:13:01;;;;;;;16.35;3.65;;;;;;;;;;5045417;28;20138;-74
2023/12/21 03:15:27;;;;;;;19.35;5.65;;;;;;;;;;5047337;28;20128;-76
2023/12/21 03:17:53;;;;;;;14.90;2.88;;;;;;;;;;5048019;28;20033;-76
2023/12/21 03:20:19;;;;;;;19.45;4.00;;;;;;;;;;5045104;28;20041;-76
2023/12/21 03:22:45;;;;;;;18.98;3.90;;;;;;;;;;5028187;28;20379;-78
2023/12/21 03:25:12;;;;;;;13.23;3.22;;;;;;;;;;5047971;28;20033;-77
2023/12/21 03:27:38;;;;;;;19.00;3.78;;;;;;;;;;5046089;28;20465;-76
2023/12/21 03:30:04;;;;;;;18.45;4.00;;;;;;;;;;5044046;28;20035;-74
2023/12/21 03:32:30;;;;;;;19.08;4.15;;;;;;;;;;5027264;28;20490;-76
2023/12/21 03:34:57;;;;;;;24.92;4.53;;;;;;;;;;5029989;28;20102;-76
2023/12/21 03:37:27;;;;;;;21.63;4.13;;;;;;;;;;5046953;28;20029;-74
2023/12/21 03:39:56;;;;;;;13.95;3.17;;;;;;;;;;5029859;28;20029;-76
2023/12/21 03:42:23;;;;;;;20.27;3.40;;;;;;;;;;5044738;28;20033;-75
2023/12/21 03:44:49;;;;;;;18.17;3.78;;;;;;;;;;5044427;28;20040;-75
2023/12/21 03:47:15;;;;;;;16.35;3.33;;;;;;;;;;5045064;28;20033;-75
2023/12/21 03:49:41;;;;;;;19.02;4.35;;;;;;;;;;5045692;28;20247;-76
2023/12/21 03:52:08;;;;;;;19.50;3.28;;;;;;;;;;5045153;28;20087;-75
2023/12/21 03:54:34;;;;;;;16.75;3.35;;;;;;;;;;5048516;28;20120;-76
2023/12/21 03:57:00;;;;;;;18.58;3.30;;;;;;;;;;5079357;28;20021;-76
2023/12/21 03:59:26;;;;;;;18.55;4.10;;;;;;;;;;5048094;28;20075;-75
2023/12/21 04:01:53;;;;;;;22.55;3.28;;;;;;;;;;5046477;28;20043;-76
2023/12/21 04:04:19;;;;;;;19.90;4.07;;;;;;;;;;5045766;28;20041;-76
2023/12/21 04:06:45;;;;;;;17.50;4.70;;;;;;;;;;5077481;28;20039;-76
2023/12/21 04:09:11;;;;;;;12.90;3.70;;;;;;;;;;5043525;28;20490;-76
2023/12/21 04:11:37;;;;;;;15.85;3.47;;;;;;;;;;5047280;28;20136;-76
2023/12/21 04:14:03;;;;;;;16.40;3.38;;;;;;;;;;5048965;28;20056;-76
2023/12/21 04:16:29;;;;;;;18.42;3.63;;;;;;;;;;5051218;28;20071;-75
2023/12/21 04:18:56;;;;;;;16.00;2.60;;;;;;;;;;5051598;28;20063;-76
2023/12/21 04:21:22;;;;;;;13.45;2.75;;;;;;;;;;5049054;28;20106;-76
2023/12/21 04:23:48;;;;;;;24.33;3.40;;;;;;;;;;5051287;28;20032;-75
2023/12/21 04:26:19;;;;;;;25.60;4.63;;;;;;;;;;5049136;28;20036;-76
2023/12/21 04:28:45;;;;;;;16.20;2.53;;;;;;;;;;5051332;28;20297;-76
2023/12/21 04:31:17;;;;;;;19.13;2.63;;;;;;;;;;5049585;28;20021;-76
2023/12/21 04:33:45;;;;;;;16.95;3.20;;;;;;;;;;5051401;28;20033;-76
2023/12/21 04:36:11;;;;;;;18.83;3.75;;;;;;;;;;5050846;28;20025;-74
2023/12/21 04:38:38;;;;;;;16.48;4.07;;;;;;;;;;5049658;28;20036;-76
2023/12/21 04:41:04;;;;;;;19.67;3.55;;;;;;;;;;5048935;28;20112;-76
2023/12/21 04:43:30;;;;;;;19.02;3.17;;;;;;;;;;5050561;28;20017;-75
2023/12/21 04:45:56;;;;;;;14.38;2.53;;;;;;;;;;5048561;28;20021;-76
2023/12/21 04:48:23;;;;;;;13.73;3.28;;;;;;;;;;5050573;28;20029;-75
2023/12/21 04:50:49;;;;;;;14.73;3.58;;;;;;;;;;5050504;28;20033;-76
2023/12/21 04:53:15;;;;;;;19.00;3.22;;;;;;;;;;5048784;28;20397;-76
2023/12/21 04:55:41;;;;;;;16.27;3.50;;;;;;;;;;5048022;28;20462;-76
2023/12/21 04:58:08;;;;;;;13.02;2.95;;;;;;;;;;5050945;28;20140;-76
2023/12/21 05:00:34;;;;;;;13.27;2.90;;;;;;;;;;5080265;28;20045;-77
2023/12/21 05:03:01;;;;;;;15.68;3.10;;;;;;;;;;5051122;28;20029;-76
2023/12/21 05:05:27;;;;;;;14.55;3.13;;;;;;;;;;5050839;28;20119;-76
2023/12/21 05:07:53;;;;;;;13.25;2.60;;;;;;;;;;5049572;28;20119;-76
2023/12/21 05:10:19;;;;;;;21.15;3.28;;;;;;;;;;5049528;28;20192;-75
2023/12/21 05:12:46;;;;;;;18.25;3.40;;;;;;;;;;5048841;28;20048;-76
2023/12/21 05:15:12;;;;;;;14.45;3.40;;;;;;;;;;5049695;28;20068;-75
2023/12/21 05:17:38;;;;;;;20.10;4.28;;;;;;;;;;5050765;28;20484;-75
2023/12/21 05:20:05;;;;;;;23.95;4.60;;;;;;;;;;5050826;28;20110;-76
2023/12/21 05:22:31;;;;;;;20.52;3.17;;;;;;;;;;5049355;28;20071;-76
2023/12/21 05:24:57;;;;;;;17.77;2.97;;;;;;;;;;5048488;28;20056;-76
2023/12/21 05:27:23;;;;;;;23.50;3.00;;;;;;;;;;5045540;28;20518;-76
2023/12/21 05:29:49;;;;;;;13.32;3.00;;;;;;;;;;5048519;28;20039;-76
2023/12/21 05:32:16;;;;;;;14.48;2.92;;;;;;;;;;5048826;28;20040;-76
2023/12/21 05:34:42;;;;;;;16.95;3.13;;;;;;;;;;5050199;28;20052;-77
2023/12/21 05:37:08;;;;;;;18.15;2.95;;;;;;;;;;5049732;28;20032;-77
2023/12/21 05:39:35;;;;;;;20.75;3.70;;;;;;;;;;5047428;28;20478;-77
2023/12/21 05:42:01;;;;;;;15.32;2.90;;;;;;;;;;5047800;28;20275;-76
2023/12/21 05:44:27;;;;;;;10.00;2.30;;;;;;;;;;5049501;28;20102;-77
2023/12/21 05:46:53;;;;;;;18.83;3.00;;;;;;;;;;5031553;28;20029;-75
2023/12/21 05:49:19;;;;;;;19.25;2.83;;;;;;;;;;5048955;28;20136;-75
2023/12/21 05:51:48;;;;;;;16.80;3.33;;;;;;;;;;5046022;28;20432;-76
2023/12/21 05:54:14;;;;;;;15.38;3.33;;;;;;;;;;5048290;28;20048;-75
2023/12/21 05:56:41;;;;;;;18.73;3.30;;;;;;;;;;5048239;28;20496;-76
2023/12/21 05:59:09;;;;;;;20.77;3.40;;;;;;;;;;5048905;28;20033;-76
2023/12/21 06:01:35;;;;;;;15.50;3.42;;;;;;;;;;5049687;28;20025;-76
2023/12/21 06:04:01;;;;;;;16.08;3.28;;;;;;;;;;5031111;28;20119;-76
2023/12/21 06:06:27;;;;;;;16.88;3.15;;;;;;;;;;5031698;28;20033;-75
2023/12/21 06:08:53;;;;;;;14.45;2.83;;;;;;;;;;5047827;28;20064;-75
2023/12/21 06:11:20;;;;;;;17.73;2.95;;;;;;;;;;5046094;28;20044;-76
2023/12/21 06:13:46;;;;;;;14.70;2.90;;;;;;;;;;5043011;28;20079;-75
2023/12/21 06:16:14;;;;;;;15.50;3.92;;;;;;;;;;5042862;28;20099;-76
2023/12/21 06:18:41;;;;;;;18.92;3.90;;;;;;;;;;5026130;28;20067;-77
2023/12/21 06:21:07;;;;;;;14.43;2.97;;;;;;;;;;5046327;28;20031;-76
2023/12/21 06:23:33;;;;;;;19.45;3.75;;;;;;;;;;5034669;28;20038;-77
2023/12/21 06:26:00;;;;;;;18.30;3.80;;;;;;;;;;5030105;28;20029;-77
2023/12/21 06:28:26;;;;;;;17.75;4.70;;;;;;;;;;5049579;28;20430;-78
2023/12/21 06:30:52;;;;;;;11.98;3.00;;;;;;;;;;5047629;28;20064;-77
2023/12/21 06:33:18;;;;;;;18.10;3.25;;;;;;;;;;5047944;28;20024;-78
2023/12/21 06:35:44;;;;;;;13.57;3.17;;;;;;;;;;5047813;28;20122;-76
2023/12/21 06:38:11;;;;;;;18.92;3.80;;;;;;;;;;5028674;28;20035;-77
2023/12/21 06:40:37;;;;;;;15.43;3.33;;;;;;;;;;5038506;28;20045;-77
2023/12/21 06:43:03;;;;;;;16.20;3.67;;;;;;;;;;5048980;28;20103;-76
2023/12/21 06:45:29;;;;;;;18.52;2.90;;;;;;;;;;5040089;28;20485;-75
2023/12/21 06:47:55;;;;;;;16.80;2.95;;;;;;;;;;5045601;28;20033;-76
2023/12/21 06:50:21;;;;;;;14.40;2.60;;;;;;;;;;5046634;28;20500;-77
2023/12/21 06:52:50;;;;;;;10.32;3.03;;;;;;;;;;5046815;28;20033;-77
2023/12/21 06:55:16;;;;;;;14.77;2.72;;;;;;;;;;5043458;28;20032;-78
2023/12/21 06:57:43;;;;;;;15.98;3.75;;;;;;;;;;5045525;28;20069;-78
2023/12/21 07:00:12;;;;;;;10.73;2.40;;;;;;;;;;5044632;28;20037;-77
2023/12/21 07:02:38;;;;;;;13.82;2.88;;;;;;;;;;5044644;28;20030;-78
2023/12/21 07:05:04;;;;;;;16.08;3.38;;;;;;;;;;5042952;28;20080;-76
2023/12/21 07:07:30;;;;;;;19.13;3.30;;;;;;;;;;5045121;28;20032;-76
2023/12/21 07:09:56;;;;;;;21.88;3.38;;;;;;;;;;5038238;28;20036;-77
2023/12/21 07:12:26;;;;;;;12.80;3.45;;;;;;;;;;5033246;28;20536;-76
2023/12/21 07:14:52;;;;;;;16.98;4.00;;;;;;;;;;5038329;28;20091;-75
2023/12/21 07:17:18;;;;;;;15.73;3.33;;;;;;;;;;5044219;28;20394;-74
2023/12/21 07:19:44;;;;;;;17.65;4.43;;;;;;;;;;5041917;28;20064;-76
2023/12/21 07:22:11;;;;;;;26.88;3.70;;;;;;;;;;5041928;28;20056;-76
2023/12/21 07:24:37;;;;;;;21.65;3.95;;;;;;;;;;5046130;28;20028;-77
2023/12/21 07:27:03;;;;;;;19.05;3.88;;;;;;;;;;5047852;28;20063;-76
2023/12/21 07:29:29;;;;;;;18.95;4.05;;;;;;;;;;5047289;28;20037;-76
2023/12/21 07:31:55;;;;;;;19.92;3.40;;;;;;;;;;5047925;28;20189;-77
2023/12/21 07:34:22;;;;;;;26.15;3.97;;;;;;;;;;5048673;28;20021;-77
2023/12/21 07:36:48;;;;;;;23.90;4.53;;;;;;;;;;5029275;28;20029;-76
2023/12/21 07:39:14;;;;;;;23.60;4.22;;;;;;;;;;5045506;28;20031;-76
2023/12/21 07:41:40;;;;;;;20.20;3.60;;;;;;;;;;5037174;28;20382;-77
2023/12/21 07:44:06;;;;;;;18.45;3.95;;;;;;;;;;5037452;28;20487;-77
2023/12/21 07:46:32;;;;;;;18.42;3.85;;;;;;;;;;5028967;28;20056;-77
2023/12/21 07:48:59;;;;;;;26.98;4.55;;;;;;;;;;5045975;28;20090;-77
2023/12/21 07:51:25;;;;;;;24.00;5.18;;;;;;;;;;5050887;28;20128;-77
2023/12/21 07:53:52;;;;;;;19.83;4.25;;;;;;;;;;5050577;28;20076;-76
2023/12/21 07:56:18;;;;;;;24.50;5.22;;;;;;;;;;5033353;28;20038;-76
2023/12/21 07:58:46;;;;;;;20.67;4.85;;;;;;;;;;5032704;28;20033;-77
2023/12/21 08:01:12;;;;;;;19.83;4.15;;;;;;;;;;5066395;28;20330;-76
2023/12/21 08:03:38;;;;;;;23.55;4.88;;;;;;;;;;5033514;28;20402;-77
2023/12/21 08:06:05;;;;;;;27.38;4.70;;;;;;;;;;5047915;28;20148;-76
2023/12/21 08:08:32;;;;;;;21.00;4.85;;;;;;;;;;5047468;28;20075;-77
2023/12/21 08:10:58;;;;;;;29.77;4.63;;;;;;;;;;5027969;28;20136;-76
2023/12/21 08:13:25;;;;;;;19.75;4.97;;;;;;;;;;5031598;28;20048;-77
2023/12/21 08:15:51;;;;;;;25.50;5.03;;;;;;;;;;5044143;28;20063;-77
2023/12/21 08:18:17;;;;;;;22.13;4.30;;;;;;;;;;5051173;28;20025;-79
2023/12/21 08:20:47;;;;;;;33.42;5.00;;;;;;;;;;5046132;28;20033;-77
2023/12/21 08:23:13;;;;;;;25.73;4.47;;;;;;;;;;5035180;28;20116;-76
2023/12/21 08:25:39;;;;;;;23.80;4.60;;;;;;;;;;5031085;28;20048;-77
2023/12/21 08:28:05;;;;;;;27.65;4.75;;;;;;;;;;5047108;28;20140;-77
2023/12/21 08:30:31;;;;;;;31.17;4.38;;;;;;;;;;5050046;28;20037;-77
2023/12/21 08:32:58;;;;;;;21.77;3.60;;;;;;;;;;5031636;28;20505;-77
2023/12/21 08:35:24;;;;;;;31.02;3.97;;;;;;;;;;5055894;28;20020;-77
2023/12/21 08:37:50;;;;;;;21.63;3.00;;;;;;;;;;5028405;28;20051;-77
2023/12/21 08:40:16;;;;;;;19.90;3.08;;;;;;;;;;5043364;28;20029;-76
2023/12/21 08:42:42;;;;;;;17.27;3.13;;;;;;;;;;5042465;28;20380;-76
2023/12/21 08:45:09;;;;;;;20.45;3.13;;;;;;;;;;5045524;28;20032;-77
2023/12/21 08:47:40;;;;;;;20.17;3.58;;;;;;;;;;5036511;28;20374;-75
2023/12/21 08:50:07;;;;;;;21.58;3.60;;;;;;;;;;5043489;28;20040;-77
2023/12/21 08:52:36;;;;;;;19.80;3.50;;;;;;;;;;5047230;28;20072;-76
2023/12/21 08:55:02;;;;;;;23.38;3.00;;;;;;;;;;5032668;28;20214;-77
2023/12/21 08:57:29;;;;;;;15.43;3.38;;;;;;;;;;5031328;28;20090;-76
2023/12/21 08:59:55;;;;;;;24.98;3.15;;;;;;;;;;5031396;28;20098;-77
2023/12/21 09:02:21;;;;;;;22.52;3.75;;;;;;;;;;5037726;28;20056;-77
2023/12/21 09:04:48;;;;;;;17.00;2.80;;;;;;;;;;5050768;28;20103;-77
2023/12/21 09:07:15;;;;;;;21.00;2.97;;;;;;;;;;5049018;28;20098;-75
2023/12/21 09:09:41;;;;;;;21.15;3.17;;;;;;;;;;5050449;28;20044;-77
2023/12/21 09:12:07;;;;;;;20.55;3.33;;;;;;;;;;5036392;28;20045;-77
2023/12/21 09:14:33;;;;;;;22.95;3.28;;;;;;;;;;5032665;28;20074;-77
2023/12/21 09:17:00;;;;;;;17.90;2.83;;;;;;;;;;5049507;28;20037;-78
2023/12/21 09:19:27;;;;;;;19.95;3.72;;;;;;;;;;5033685;28;20479;-77
2023/12/21 09:21:53;;;;;;;21.00;2.70;;;;;;;;;;5082627;28;20040;-78
2023/12/21 09:24:19;;;;;;;21.55;3.38;;;;;;;;;;5049090;28;20037;-77
2023/12/21 09:26:46;;;;;;;18.73;2.78;;;;;;;;;;5066726;28;20505;-76
2023/12/21 09:29:13;;;;;;;16.77;2.83;;;;;;;;;;5072615;28;20059;-78
2023/12/21 09:31:39;;;;;;;15.88;2.97;;;;;;;;;;5071056;28;20032;-78
2023/12/21 09:34:07;;;;;;;14.68;2.25;;;;;;;;;;5070285;28;20043;-79
2023/12/21 09:36:34;;;;;;;14.23;2.33;;;;;;;;;;5048256;28;20079;-78
2023/12/21 09:39:00;;;;;;;18.38;2.25;;;;;;;;;;5042632;28;20105;-76
2023/12/21 09:41:26;;;;;;;8.45;1.80;;;;;;;;;;5047601;28;20037;-78
2023/12/21 09:43:53;;;;;;;13.15;2.40;;;;;;;;;;5046476;28;20493;-77
2023/12/21 09:46:19;;;;;;;15.50;1.73;;;;;;;;;;5047466;28;20016;-78
2023/12/21 09:48:45;;;;;;;13.48;2.15;;;;;;;;;;5048426;28;20036;-77
2023/12/21 09:51:13;;;;;;;16.02;3.22;;;;;;;;;;5045571;28;20370;-77
2023/12/21 09:53:40;;;;;;;13.55;2.40;;;;;;;;;;5047265;28;20037;-76
2023/12/21 09:56:07;;;;;;;15.73;2.40;;;;;;;;;;5045243;28;20389;-80
2023/12/21 09:58:33;;;;;;;17.52;3.38;;;;;;;;;;5048129;28;20033;-76
2023/12/21 10:00:59;;;;;;;11.80;1.80;;;;;;;;;;5046700;28;20170;-77
2023/12/21 10:03:25;;;;;;;16.20;3.17;;;;;;;;;;5046545;28;20044;-76
2023/12/21 10:05:52;;;;;;;14.95;2.42;;;;;;;;;;5046991;28;20037;-77
2023/12/21 10:08:18;;;;;;;20.08;3.25;;;;;;;;;;5046559;28;20032;-78
2023/12/21 10:10:45;;;;;;;17.20;2.20;;;;;;;;;;5047927;28;20037;-74
2023/12/21 10:13:11;;;;;;;20.83;2.65;;;;;;;;;;5045859;28;20032;-77
2023/12/21 10:15:40;;;;;;;15.68;3.15;;;;;;;;;;5046329;28;20048;-77
2023/12/21 10:18:07;;;;;;;21.63;3.55;;;;;;;;;;5046159;28;20024;-76
2023/12/21 10:20:33;;;;;;;22.25;4.28;;;;;;;;;;5047682;28;20470;-81
2023/12/21 10:22:59;;;;;;;17.40;2.70;;;;;;;;;;5045596;28;20048;-78
2023/12/21 10:25:26;;;;;;;15.13;2.83;;;;;;;;;;5046005;28;20021;-77
2023/12/21 10:27:53;;;;;;;17.70;3.03;;;;;;;;;;5045699;28;20029;-77
2023/12/21 10:30:23;;;;;;;15.65;3.05;;;;;;;;;;5045968;28;20082;-77
2023/12/21 10:32:53;;;;;;;17.80;2.47;;;;;;;;;;5045753;28;20111;-76
2023/12/21 10:35:19;;;;;;;9.38;2.70;;;;;;;;;;5046113;28;20024;-78
2023/12/21 10:37:49;;;;;;;13.27;2.33;;;;;;;;;;5046387;28;20033;-77
2023/12/21 10:40:15;;;;;;;16.38;2.72;;;;;;;;;;5045265;28;20025;-77
2023/12/21 10:42:43;;;;;;;14.25;2.42;;;;;;;;;;5045942;28;20068;-76
2023/12/21 10:45:13;;;;;;;16.02;3.72;;;;;;;;;;5042671;28;20029;-76
2023/12/21 10:47:41;;;;;;;16.35;2.38;;;;;;;;;;5045483;28;20028;-77
2023/12/21 10:50:08;;;;;;;13.35;2.53;;;;;;;;;;5046581;28;20037;-76
2023/12/21 10:52:34;;;;;;;16.90;2.97;;;;;;;;;;5041442;28;20130;-78
2023/12/21 10:55:01;;;;;;;22.52;2.88;;;;;;;;;;5044488;28;20040;-79
2023/12/21 10:57:29;;;;;;;18.83;2.85;;;;;;;;;;5043883;28;20029;-77
2023/12/21 10:59:55;;;;;;;20.67;3.80;;;;;;;;;;5045335;28;20304;-78
2023/12/21 11:02:21;;;;;;;16.80;3.75;;;;;;;;;;5046134;28;20048;-77
2023/12/21 11:04:49;;;;;;;18.17;3.10;;;;;;;;;;5045294;28;20140;-77
2023/12/21 11:07:16;;;;;;;12.48;2.58;;;;;;;;;;5043786;28;20043;-77
2023/12/21 11:09:42;;;;;;;14.88;3.08;;;;;;;;;;5043482;28;20071;-77
2023/12/21 11:12:09;;;;;;;13.50;2.58;;;;;;;;;;5041711;28;20049;-77
2023/12/21 11:14:36;;;;;;;15.30;2.83;;;;;;;;;;5042630;28;20044;-81
2023/12/21 11:17:03;;;;;;;19.23;3.10;;;;;;;;;;5048329;28;20029;-79
2023/12/21 11:19:36;;;;;;;12.55;2.53;;;;;;;;;;5047019;28;20028;-79
2023/12/21 11:22:04;;;;;;;19.08;2.30;;;;;;;;;;5047490;28;20056;-76
2023/12/21 11:24:30;;;;;;;14.68;2.60;;;;;;;;;;5047028;28;20178;-78
2023/12/21 11:26:59;;;;;;;9.35;2.55;;;;;;;;;;5048413;28;20033;-78
2023/12/21 11:29:27;;;;;;;16.25;3.08;;;;;;;;;;5048299;28;20159;-78
2023/12/21 11:31:54;;;;;;;16.08;3.35;;;;;;;;;;5044489;28;20033;-78
2023/12/21 11:34:24;;;;;;;19.27;2.78;;;;;;;;;;5047303;28;20454;-78
2023/12/21 11:37:10;;;;;;;16.33;3.75;;;;;;;;;;5047221;28;20064;-76
2023/12/21 11:39:36;;;;;;;10.48;2.80;;;;;;;;;;5047425;28;20040;-77
2023/12/21 11:42:03;;;;;;;12.57;2.13;;;;;;;;;;5047594;28;20033;-75
2023/12/21 11:44:36;;;;;;;11.90;2.60;;;;;;;;;;5030169;28;20041;-75
2023/12/21 11:47:02;;;;;;;14.27;3.08;;;;;;;;;;5046842;28;20041;-76
2023/12/21 11:49:29;;;;;;;15.93;2.38;;;;;;;;;;5046467;28;20084;-77
2023/12/21 11:51:55;;;;;;;13.20;2.30;;;;;;;;;;5044428;28;20086;-76
2023/12/21 11:54:24;;;;;;;13.68;2.40;;;;;;;;;;5048197;28;20519;-76
2023/12/21 11:56:51;;;;;;;14.35;2.88;;;;;;;;;;5044742;28;20025;-78
2023/12/21 11:59:17;;;;;;;14.43;2.33;;;;;;;;;;5032188;28;20398;-78
2023/12/21 12:01:46;;;;;;;14.02;2.50;;;;;;;;;;5048367;28;20084;-78
2023/12/21 12:04:15;;;;;;;15.48;2.28;;;;;;;;;;5028771;28;20041;-78
2023/12/21 12:06:46;;;;;;;17.67;2.90;;;;;;;;;;5041390;28;20041;-79
2023/12/21 12:09:15;;;;;;;18.27;2.97;;;;;;;;;;5040061;28;20049;-77
2023/12/21 12:11:41;;;;;;;13.95;3.63;;;;;;;;;;5028645;28;20049;-77
2023/12/21 12:14:09;;;;;;;10.23;2.95;;;;;;;;;;5035005;28;20045;-80
2023/12/21 12:16:37;;;;;;;17.17;3.28;;;;;;;;;;5044158;28;20037;-78
2023/12/21 12:19:03;;;;;;;11.60;2.22;;;;;;;;;;5043848;28;20070;-77
2023/12/21 12:21:32;;;;;;;16.95;2.47;;;;;;;;;;5011981;28;20053;-79
2023/12/21 12:23:59;;;;;;;16.65;2.85;;;;;;;;;;5033340;28;20025;-75
2023/12/21 12:26:26;;;;;;;18.55;2.45;;;;;;;;;;5049181;28;20060;-77
2023/12/21 12:28:53;;;;;;;16.05;2.03;;;;;;;;;;5047117;28;20037;-78
2023/12/21 12:31:19;;;;;;;16.10;3.42;;;;;;;;;;5029004;28;20714;-80
2023/12/21 12:33:47;;;;;;;14.35;3.38;;;;;;;;;;5030895;28;20033;-75
2023/12/21 12:36:16;;;;;;;18.92;2.75;;;;;;;;;;5038785;28;20132;-77
2023/12/21 12:38:47;;;;;;;13.85;2.78;;;;;;;;;;5051139;28;20092;-78
2023/12/21 12:41:24;;;;;;;16.52;3.33;;;;;;;;;;5051097;28;20090;-76
2023/12/21 12:43:51;;;;;;;15.10;3.17;;;;;;;;;;5049292;28;20061;-78
2023/12/21 12:46:20;;;;;;;18.85;3.80;;;;;;;;;;5050637;28;20033;-79
2023/12/21 12:48:47;;;;;;;21.70;2.63;;;;;;;;;;5046107;28;20041;-77
2023/12/21 12:51:14;;;;;;;15.23;2.85;;;;;;;;;;5046400;28;20111;-80
2023/12/21 12:53:42;;;;;;;19.00;4.53;;;;;;;;;;5036571;28;20033;-78
2023/12/21 12:56:09;;;;;;;20.00;3.17;;;;;;;;;;5047595;28;20052;-77
2023/12/21 12:58:35;;;;;;;28.05;3.85;;;;;;;;;;5047354;28;20040;-76
2023/12/21 13:01:03;;;;;;;23.92;3.83;;;;;;;;;;5049145;28;20553;-78
2023/12/21 13:03:30;;;;;;;18.75;2.92;;;;;;;;;;5048029;28;20025;-78
2023/12/21 13:05:58;;;;;;;21.17;2.97;;;;;;;;;;5034461;28;20033;-79
2023/12/21 13:08:24;;;;;;;22.00;3.72;;;;;;;;;;5032930;28;20036;-77
2023/12/21 13:10:50;;;;;;;20.33;3.50;;;;;;;;;;5040385;28;20118;-76
2023/12/21 13:13:17;;;;;;;20.48;3.42;;;;;;;;;;5038358;28;20049;-77
2023/12/21 13:15:43;;;;;;;23.25;5.18;;;;;;;;;;5071775;28;20124;-75
2023/12/21 13:18:09;;;;;;;20.30;3.17;;;;;;;;;;5050235;28;20040;-76
2023/12/21 13:20:36;;;;;;;20.00;4.03;;;;;;;;;;5048075;28;20127;-79
2023/12/21 13:23:02;;;;;;;21.77;3.72;;;;;;;;;;5049242;28;20035;-77
2023/12/21 13:25:28;;;;;;;18.02;3.38;;;;;;;;;;5048537;28;20323;-78
2023/12/21 13:27:55;;;;;;;22.25;3.83;;;;;;;;;;5050601;28;20087;-77
2023/12/21 13:30:23;;;;;;;18.98;3.78;;;;;;;;;;5048713;28;20044;-77
2023/12/21 13:32:49;;;;;;;20.20;3.22;;;;;;;;;;5049511;28;20025;-78
2023/12/21 13:35:19;;;;;;;24.70;3.38;;;;;;;;;;5044955;28;21298;-78
2023/12/21 13:37:46;;;;;;;21.30;4.55;;;;;;;;;;5046775;28;20037;-76
2023/12/21 13:40:12;;;;;;;26.35;3.88;;;;;;;;;;5040377;28;20044;-79
2023/12/21 13:42:39;;;;;;;26.13;4.22;;;;;;;;;;5038978;28;20048;-75
2023/12/21 13:45:05;;;;;;;20.63;3.63;;;;;;;;;;5049386;28;20033;-77
2023/12/21 13:47:34;;;;;;;28.42;3.80;;;;;;;;;;5031508;28;20025;-77
2023/12/21 13:50:00;;;;;;;30.40;3.88;;;;;;;;;;5049230;28;20120;-78
2023/12/21 13:52:26;;;;;;;24.40;3.78;;;;;;;;;;5043745;28;20036;-76
2023/12/21 13:54:52;;;;;;;22.98;3.92;;;;;;;;;;5077833;28;20398;-77
2023/12/21 13:57:19;;;;;;;24.38;4.32;;;;;;;;;;5030262;28;20025;-77
2023/12/21 13:59:46;;;;;;;30.23;4.30;;;;;;;;;;5034529;28;20518;-76
2023/12/21 14:02:12;;;;;;;28.42;4.47;;;;;;;;;;5046378;28;20037;-76
2023/12/21 14:04:38;;;;;;;38.88;4.00;;;;;;;;;;5047133;28;20087;-78
2023/12/21 14:07:04;;;;;;;28.05;5.05;;;;;;;;;;5047416;28;20107;-80
2023/12/21 14:09:30;;;;;;;25.77;4.43;;;;;;;;;;5049633;28;20067;-78
2023/12/21 14:11:56;;;;;;;26.23;4.00;;;;;;;;;;5038928;28;20044;-78
2023/12/21 14:14:23;;;;;;;27.05;4.57;;;;;;;;;;5045584;28;20017;-78
2023/12/21 14:16:49;;;;;;;32.97;5.28;;;;;;;;;;5048294;28;20067;-78
2023/12/21 14:19:15;;;;;;;32.08;5.25;;;;;;;;;;5046494;28;20032;-75
2023/12/21 14:21:41;;;;;;;31.45;5.57;;;;;;;;;;5041290;28;20048;-78
2023/12/21 14:24:08;;;;;;;31.70;4.97;;;;;;;;;;5048930;28;20072;-80
2023/12/21 14:26:34;;;;;;;33.15;6.18;;;;;;;;;;5049521;28;20033;-78